ムンバイ の空港の天気 - METARとTAF

チャットラパティー・シヴァージー国際空港 ( VABB / BOM ) - インド ムンバイ
飛行場実況気象(Metar)
観測時間02/28 06:00 IST (02/28 00:30 UTC)
風向・風速南 2m/s
視程2500m
天気現象
なし
気温25℃
湿度47%
気圧1011hPa
METARVABB 280030Z 19003KT 2500 FU NSC 25/13 Q1011 BECMG 3000 FU
過去の天気等 Google飛行場航空写真 Wunderground天気予報

過去48時間のMETAR

飛行場予報(TAF)
発表時間: 2/28 04:30 IST (2/27 23:00 UTC)
予報対象時間: 28日5時 IST ~ 1日11時 IST
風向・風速東南東 2m/s
視程2,000m
天気現象
なし
28日12時 IST ~ 28日14時 IST に徐々に
風向・風速西 4m/s
視程4,000m
天気現象
28日18時 IST ~ 28日20時 IST に徐々に
風向・風速不定 2m/s
視程3,000m
天気現象
28日23時 IST ~ 1日1時 IST に徐々に
風向・風速静穏
1日6時 IST ~ 1日8時 IST に徐々に
風向・風速東南東 2m/s
視程2,000m
天気現象
TAF VABB 272300Z 2800/0106 12004KT 2000 FU NSC
BECMG 2807/2809 28008KT 4000 FU
BECMG 2813/2815 VRB03KT 3000 FU
BECMG 2818/2820 00000KT
BECMG 0101/0103 12004KT 2000 FU